DLH030 EDDP-LDSB
Flight info
| Callsign | DLH030 |
|---|---|
| Flight time | 1h 31m |
| Altitude | 28000 |
| Route | EDDP/26L DRN2S DRN Z21 OMELO DCT EVIKU DCT VOZ DCT LANUX DCT RADLY DCT NEMEK DCT NUPSO DCT KEMIX KEMI1X LDSB/N03 |
| Aircraft | B736/M-SDE2E3FGHIRWXY/LB1 |
Departure
| Time | 2026-04-25 14:40 |
|---|---|
| Airport | Leipzig/Halle Airport (EDDP) |
Arrival
| Time | 2026-04-25 16:12 |
|---|---|
| Airport | Brač Airport (LDSB) |
| Time | Latitude | Longitude | Altitude | Speed | Heading |
|---|---|---|---|---|---|
| 2026-04-25 14:10 | 51.41898 | 12.22112 | 443 ft | 0 kts | 15° |
| 2026-04-25 14:18 | 51.41899 | 12.22112 | 443 ft | 0 kts | 15° |
| 2026-04-25 14:31 | 51.41903 | 12.22114 | 443 ft | 1 kts | 15° |
| 2026-04-25 14:31 | 51.41904 | 12.22114 | 443 ft | 0 kts | 14° |
| 2026-04-25 14:31 | 51.41901 | 12.22113 | 443 ft | 2 kts | 14° |
| 2026-04-25 14:31 | 51.41886 | 12.22107 | 455 ft | 2 kts | 14° |
| 2026-04-25 14:32 | 51.41870 | 12.22101 | 434 ft | 2 kts | 13° |
| 2026-04-25 14:32 | 51.41854 | 12.22095 | 445 ft | 2 kts | 13° |
| 2026-04-25 14:32 | 51.41839 | 12.22089 | 446 ft | 2 kts | 12° |
| 2026-04-25 14:32 | 51.41823 | 12.22084 | 439 ft | 2 kts | 11° |
| 2026-04-25 14:33 | 51.41807 | 12.22079 | 446 ft | 2 kts | 10° |
| 2026-04-25 14:33 | 51.41800 | 12.22078 | 446 ft | 0 kts | 9° |
| 2026-04-25 14:33 | 51.41801 | 12.22078 | 446 ft | 0 kts | 10° |
| 2026-04-25 14:33 | 51.41805 | 12.22094 | 447 ft | 4 kts | 86° |
| 2026-04-25 14:34 | 51.41781 | 12.22173 | 448 ft | 12 kts | 110° |
| 2026-04-25 14:34 | 51.41758 | 12.22304 | 452 ft | 12 kts | 105° |
| 2026-04-25 14:34 | 51.41736 | 12.22432 | 455 ft | 12 kts | 105° |
| 2026-04-25 14:34 | 51.41715 | 12.22556 | 458 ft | 11 kts | 105° |
| 2026-04-25 14:35 | 51.41695 | 12.22677 | 461 ft | 11 kts | 105° |
| 2026-04-25 14:35 | 51.41674 | 12.22795 | 462 ft | 11 kts | 105° |
| 2026-04-25 14:35 | 51.41655 | 12.22910 | 463 ft | 11 kts | 105° |
| 2026-04-25 14:35 | 51.41636 | 12.23021 | 463 ft | 10 kts | 105° |
| 2026-04-25 14:36 | 51.41618 | 12.23129 | 461 ft | 10 kts | 105° |
| 2026-04-25 14:36 | 51.41599 | 12.23236 | 462 ft | 10 kts | 105° |
| 2026-04-25 14:36 | 51.41601 | 12.23357 | 462 ft | 12 kts | 84° |
| 2026-04-25 14:36 | 51.41609 | 12.23495 | 463 ft | 13 kts | 87° |
| 2026-04-25 14:37 | 51.41614 | 12.23633 | 465 ft | 12 kts | 86° |
| 2026-04-25 14:37 | 51.41620 | 12.23768 | 467 ft | 12 kts | 85° |
| 2026-04-25 14:37 | 51.41626 | 12.23902 | 468 ft | 12 kts | 85° |
| 2026-04-25 14:37 | 51.41632 | 12.24035 | 470 ft | 12 kts | 85° |
| 2026-04-25 14:38 | 51.41639 | 12.24164 | 473 ft | 12 kts | 85° |
| 2026-04-25 14:38 | 51.41646 | 12.24293 | 474 ft | 12 kts | 84° |
| 2026-04-25 14:38 | 51.41653 | 12.24440 | 473 ft | 14 kts | 89° |
| 2026-04-25 14:38 | 51.41657 | 12.24592 | 474 ft | 13 kts | 85° |
| 2026-04-25 14:39 | 51.41642 | 12.24732 | 471 ft | 13 kts | 132° |
| 2026-04-25 14:39 | 51.41555 | 12.24736 | 471 ft | 13 kts | 197° |
| 2026-04-25 14:39 | 51.41475 | 12.24704 | 469 ft | 11 kts | 193° |
| 2026-04-25 14:39 | 51.41401 | 12.24674 | 471 ft | 11 kts | 195° |
| 2026-04-25 14:40 | 51.41354 | 12.24593 | 471 ft | 12 kts | 265° |
| 2026-04-25 14:40 | 51.41338 | 12.24238 | 471 ft | 71 kts | 265° |
| 2026-04-25 14:40 | 51.41279 | 12.22892 | 493 ft | 165 kts | 266° |
| 2026-04-25 14:40 | 51.41165 | 12.20781 | 1097 ft | 209 kts | 266° |
| 2026-04-25 14:41 | 51.41041 | 12.18286 | 2141 ft | 242 kts | 266° |
| 2026-04-25 14:41 | 51.40883 | 12.15391 | 3214 ft | 280 kts | 265° |
| 2026-04-25 14:41 | 51.40689 | 12.12123 | 4260 ft | 305 kts | 266° |
| 2026-04-25 14:41 | 51.40266 | 12.08714 | 5275 ft | 326 kts | 250° |
| 2026-04-25 14:42 | 51.38865 | 12.05777 | 6302 ft | 342 kts | 222° |
| 2026-04-25 14:42 | 51.37477 | 12.04527 | 6957 ft | 351 kts | 204° |
| 2026-04-25 14:42 | 51.34175 | 12.04300 | 8282 ft | 369 kts | 168° |
| 2026-04-25 14:42 | 51.31863 | 12.06123 | 9350 ft | 379 kts | 148° |
| 2026-04-25 14:43 | 51.29652 | 12.08544 | 10391 ft | 391 kts | 149° |
| 2026-04-25 14:43 | 51.27312 | 12.10783 | 11148 ft | 389 kts | 154° |
| 2026-04-25 14:43 | 51.24889 | 12.12678 | 11896 ft | 388 kts | 159° |
| 2026-04-25 14:43 | 51.22422 | 12.14310 | 12664 ft | 391 kts | 162° |
| 2026-04-25 14:44 | 51.19825 | 12.15855 | 13452 ft | 395 kts | 164° |
| 2026-04-25 14:44 | 51.17224 | 12.17327 | 14204 ft | 398 kts | 164° |
| 2026-04-25 14:44 | 51.14637 | 12.18770 | 14910 ft | 400 kts | 164° |
| 2026-04-25 14:44 | 51.11999 | 12.20246 | 15632 ft | 403 kts | 164° |
| 2026-04-25 14:45 | 51.09341 | 12.21739 | 16136 ft | 411 kts | 163° |
| 2026-04-25 14:45 | 51.06620 | 12.23316 | 16651 ft | 419 kts | 159° |
| 2026-04-25 14:45 | 51.04156 | 12.25882 | 17143 ft | 430 kts | 137° |
| 2026-04-25 14:45 | 51.02378 | 12.29693 | 17685 ft | 435 kts | 116° |
| 2026-04-25 14:46 | 51.01409 | 12.34227 | 18224 ft | 435 kts | 97° |
| 2026-04-25 14:46 | 51.01279 | 12.38999 | 18742 ft | 433 kts | 87° |
| 2026-04-25 14:46 | 51.01327 | 12.43800 | 19208 ft | 434 kts | 86° |
| 2026-04-25 14:46 | 51.01398 | 12.48594 | 19689 ft | 435 kts | 86° |
| 2026-04-25 14:47 | 51.01464 | 12.53392 | 20179 ft | 436 kts | 86° |
| 2026-04-25 14:47 | 51.01501 | 12.56595 | 20511 ft | 439 kts | 87° |
| 2026-04-25 14:47 | 51.01558 | 12.63130 | 21198 ft | 447 kts | 87° |
| 2026-04-25 14:47 | 51.01588 | 12.68104 | 21720 ft | 452 kts | 87° |
| 2026-04-25 14:48 | 51.01610 | 12.73124 | 22250 ft | 457 kts | 87° |
| 2026-04-25 14:48 | 51.01627 | 12.78184 | 22785 ft | 460 kts | 88° |
| 2026-04-25 14:48 | 51.01641 | 12.83290 | 23336 ft | 463 kts | 88° |
| 2026-04-25 14:48 | 51.01653 | 12.88406 | 23841 ft | 466 kts | 88° |
| 2026-04-25 14:49 | 51.01663 | 12.93560 | 24310 ft | 468 kts | 87° |
| 2026-04-25 14:49 | 51.01671 | 12.98749 | 24784 ft | 470 kts | 87° |
| 2026-04-25 14:49 | 51.01677 | 13.03956 | 25267 ft | 473 kts | 88° |
| 2026-04-25 14:49 | 51.01680 | 13.09179 | 25756 ft | 475 kts | 87° |
| 2026-04-25 14:50 | 51.01681 | 13.14443 | 26244 ft | 477 kts | 87° |
| 2026-04-25 14:50 | 51.01681 | 13.19713 | 26751 ft | 478 kts | 87° |
| 2026-04-25 14:50 | 51.01679 | 13.25008 | 27265 ft | 479 kts | 87° |
| 2026-04-25 14:50 | 51.01673 | 13.30291 | 27790 ft | 479 kts | 87° |
| 2026-04-25 14:51 | 51.01666 | 13.35580 | 28040 ft | 481 kts | 87° |
| 2026-04-25 14:51 | 51.01656 | 13.40902 | 28018 ft | 479 kts | 87° |
| 2026-04-25 14:51 | 51.01629 | 13.51366 | 28023 ft | 472 kts | 87° |
| 2026-04-25 14:52 | 51.00818 | 13.61729 | 28025 ft | 481 kts | 111° |
| 2026-04-25 14:52 | 50.99207 | 13.66389 | 28045 ft | 482 kts | 123° |
| 2026-04-25 14:52 | 50.97974 | 13.69313 | 28030 ft | 483 kts | 124° |
| 2026-04-25 14:53 | 50.93666 | 13.79637 | 28017 ft | 483 kts | 122° |
| 2026-04-25 14:53 | 50.89731 | 13.88251 | 28041 ft | 481 kts | 129° |
| 2026-04-25 14:54 | 50.85550 | 13.96521 | 28007 ft | 481 kts | 128° |
| 2026-04-25 14:54 | 50.83447 | 14.00644 | 27998 ft | 480 kts | 132° |
| 2026-04-25 14:54 | 50.81090 | 14.04365 | 28007 ft | 479 kts | 139° |
| 2026-04-25 14:55 | 50.76157 | 14.11333 | 27999 ft | 479 kts | 140° |
| 2026-04-25 14:55 | 50.71174 | 14.18331 | 28001 ft | 479 kts | 140° |
| 2026-04-25 14:56 | 50.68706 | 14.21845 | 27991 ft | 477 kts | 139° |
| 2026-04-25 14:56 | 50.66248 | 14.25366 | 27981 ft | 476 kts | 139° |
| 2026-04-25 14:56 | 50.63805 | 14.28869 | 27989 ft | 474 kts | 139° |
| 2026-04-25 14:56 | 50.61369 | 14.32361 | 27985 ft | 473 kts | 139° |
| 2026-04-25 14:57 | 50.58936 | 14.35842 | 27992 ft | 472 kts | 139° |
| 2026-04-25 14:57 | 50.56505 | 14.39312 | 28003 ft | 472 kts | 139° |
| 2026-04-25 14:57 | 50.54070 | 14.42782 | 27991 ft | 472 kts | 139° |
| 2026-04-25 14:57 | 50.51629 | 14.46254 | 28000 ft | 473 kts | 139° |
| 2026-04-25 14:58 | 50.49179 | 14.49685 | 27989 ft | 473 kts | 142° |
| 2026-04-25 14:58 | 50.46482 | 14.52618 | 28007 ft | 470 kts | 153° |
| 2026-04-25 14:58 | 50.40460 | 14.56363 | 27980 ft | 463 kts | 169° |
| 2026-04-25 14:59 | 50.37322 | 14.57485 | 27991 ft | 461 kts | 170° |
| 2026-04-25 14:59 | 50.34197 | 14.58566 | 27993 ft | 460 kts | 171° |
| 2026-04-25 14:59 | 50.31068 | 14.59650 | 27993 ft | 460 kts | 170° |
| 2026-04-25 14:59 | 50.27987 | 14.60732 | 27990 ft | 459 kts | 170° |
| 2026-04-25 15:00 | 50.24865 | 14.61844 | 27994 ft | 459 kts | 170° |
| 2026-04-25 15:00 | 50.22765 | 14.62599 | 27998 ft | 458 kts | 170° |
| 2026-04-25 15:00 | 50.15545 | 14.65214 | 28002 ft | 459 kts | 170° |
| 2026-04-25 15:01 | 50.09311 | 14.67472 | 28001 ft | 460 kts | 170° |
| 2026-04-25 15:01 | 50.03068 | 14.69725 | 27999 ft | 460 kts | 170° |
| 2026-04-25 15:02 | 49.99950 | 14.70848 | 27998 ft | 460 kts | 170° |
| 2026-04-25 15:02 | 49.96829 | 14.71970 | 28010 ft | 461 kts | 171° |
| 2026-04-25 15:02 | 49.94762 | 14.72711 | 27998 ft | 461 kts | 171° |
| 2026-04-25 15:02 | 49.91641 | 14.73831 | 27969 ft | 460 kts | 172° |
| 2026-04-25 15:03 | 49.88524 | 14.74949 | 27983 ft | 458 kts | 172° |
| 2026-04-25 15:03 | 49.85421 | 14.76059 | 27983 ft | 457 kts | 172° |
| 2026-04-25 15:03 | 49.82323 | 14.77166 | 27981 ft | 456 kts | 172° |
| 2026-04-25 15:03 | 49.79224 | 14.78271 | 27993 ft | 456 kts | 172° |
| 2026-04-25 15:04 | 49.76136 | 14.79372 | 27986 ft | 456 kts | 172° |
| 2026-04-25 15:04 | 49.73039 | 14.80473 | 27984 ft | 455 kts | 172° |
| 2026-04-25 15:04 | 49.69949 | 14.81571 | 27988 ft | 455 kts | 172° |
| 2026-04-25 15:04 | 49.66866 | 14.82666 | 27977 ft | 455 kts | 173° |
| 2026-04-25 15:05 | 49.63786 | 14.83758 | 27985 ft | 454 kts | 173° |
| 2026-04-25 15:05 | 49.60708 | 14.84848 | 27992 ft | 454 kts | 173° |
| 2026-04-25 15:05 | 49.57622 | 14.85939 | 27991 ft | 454 kts | 173° |
| 2026-04-25 15:06 | 49.51652 | 14.89382 | 27988 ft | 466 kts | 155° |
| 2026-04-25 15:06 | 49.48945 | 14.92181 | 27994 ft | 471 kts | 147° |
| 2026-04-25 15:06 | 49.46338 | 14.95248 | 27986 ft | 473 kts | 146° |
| 2026-04-25 15:06 | 49.43742 | 14.98352 | 27964 ft | 473 kts | 146° |
| 2026-04-25 15:07 | 49.41141 | 15.01459 | 27988 ft | 473 kts | 146° |
| 2026-04-25 15:07 | 49.38522 | 15.04559 | 27983 ft | 474 kts | 147° |
| 2026-04-25 15:07 | 49.35941 | 15.07585 | 27989 ft | 474 kts | 147° |
| 2026-04-25 15:07 | 49.33277 | 15.10685 | 27991 ft | 474 kts | 147° |
| 2026-04-25 15:08 | 49.30649 | 15.13728 | 27988 ft | 474 kts | 147° |
| 2026-04-25 15:08 | 49.28015 | 15.16769 | 27987 ft | 474 kts | 147° |
| 2026-04-25 15:08 | 49.25412 | 15.19770 | 27988 ft | 474 kts | 147° |
| 2026-04-25 15:08 | 49.22774 | 15.22808 | 27995 ft | 474 kts | 147° |
| 2026-04-25 15:09 | 49.20136 | 15.25843 | 27991 ft | 474 kts | 147° |
| 2026-04-25 15:09 | 49.17508 | 15.28862 | 27966 ft | 474 kts | 147° |
| 2026-04-25 15:09 | 49.12248 | 15.34897 | 27980 ft | 471 kts | 147° |
| 2026-04-25 15:10 | 49.09624 | 15.37902 | 27988 ft | 470 kts | 147° |
| 2026-04-25 15:10 | 49.07011 | 15.40888 | 27991 ft | 469 kts | 147° |
| 2026-04-25 15:10 | 49.01787 | 15.46849 | 28000 ft | 468 kts | 147° |
| 2026-04-25 15:11 | 48.99172 | 15.49827 | 27994 ft | 469 kts | 147° |
| 2026-04-25 15:11 | 48.96561 | 15.52796 | 27990 ft | 469 kts | 147° |
| 2026-04-25 15:11 | 48.93943 | 15.55770 | 27996 ft | 469 kts | 148° |
| 2026-04-25 15:12 | 48.88285 | 15.60256 | 27999 ft | 451 kts | 172° |
| 2026-04-25 15:12 | 48.85251 | 15.60896 | 27988 ft | 442 kts | 185° |
| 2026-04-25 15:12 | 48.80609 | 15.60207 | 27996 ft | 435 kts | 194° |
| 2026-04-25 15:13 | 48.76631 | 15.59382 | 27989 ft | 435 kts | 194° |
| 2026-04-25 15:13 | 48.70625 | 15.58180 | 27981 ft | 435 kts | 193° |
| 2026-04-25 15:13 | 48.67623 | 15.57599 | 27962 ft | 435 kts | 193° |
| 2026-04-25 15:14 | 48.64619 | 15.57028 | 27988 ft | 434 kts | 193° |
| 2026-04-25 15:14 | 48.58629 | 15.55902 | 27988 ft | 434 kts | 193° |
| 2026-04-25 15:14 | 48.55633 | 15.55342 | 27991 ft | 433 kts | 193° |
| 2026-04-25 15:15 | 48.52644 | 15.54783 | 27999 ft | 433 kts | 193° |
| 2026-04-25 15:15 | 48.49651 | 15.54225 | 27994 ft | 433 kts | 193° |
| 2026-04-25 15:15 | 48.46664 | 15.53668 | 27979 ft | 433 kts | 192° |
| 2026-04-25 15:15 | 48.43673 | 15.53110 | 27973 ft | 432 kts | 192° |
| 2026-04-25 15:16 | 48.40722 | 15.52560 | 27994 ft | 432 kts | 192° |
| 2026-04-25 15:16 | 48.37737 | 15.52005 | 27988 ft | 432 kts | 193° |
| 2026-04-25 15:16 | 48.31764 | 15.50887 | 27998 ft | 432 kts | 192° |
| 2026-04-25 15:17 | 48.25786 | 15.49786 | 27996 ft | 433 kts | 192° |
| 2026-04-25 15:17 | 48.22803 | 15.49236 | 27991 ft | 433 kts | 192° |
| 2026-04-25 15:18 | 48.16825 | 15.48135 | 28004 ft | 432 kts | 192° |
| 2026-04-25 15:18 | 48.07860 | 15.46486 | 28014 ft | 432 kts | 192° |
| 2026-04-25 15:19 | 48.02901 | 15.45576 | 28008 ft | 432 kts | 192° |
| 2026-04-25 15:19 | 47.95924 | 15.44298 | 28016 ft | 431 kts | 192° |
| 2026-04-25 15:20 | 47.90007 | 15.43217 | 28016 ft | 432 kts | 192° |
| 2026-04-25 15:20 | 47.84039 | 15.42123 | 28021 ft | 432 kts | 192° |
| 2026-04-25 15:21 | 47.78065 | 15.41039 | 28028 ft | 433 kts | 192° |
| 2026-04-25 15:21 | 47.72078 | 15.39957 | 28018 ft | 433 kts | 192° |
| 2026-04-25 15:22 | 47.66107 | 15.38879 | 28024 ft | 431 kts | 192° |
| 2026-04-25 15:22 | 47.60139 | 15.37801 | 28005 ft | 432 kts | 192° |
| 2026-04-25 15:23 | 47.54164 | 15.36724 | 28017 ft | 433 kts | 192° |
| 2026-04-25 15:23 | 47.48178 | 15.35650 | 28014 ft | 433 kts | 192° |
| 2026-04-25 15:24 | 47.42232 | 15.34585 | 28006 ft | 433 kts | 192° |
| 2026-04-25 15:24 | 47.39240 | 15.34049 | 27991 ft | 433 kts | 191° |
| 2026-04-25 15:24 | 47.37217 | 15.33687 | 27993 ft | 433 kts | 191° |
| 2026-04-25 15:25 | 47.33255 | 15.32984 | 27996 ft | 431 kts | 191° |
| 2026-04-25 15:25 | 47.30285 | 15.32464 | 27994 ft | 431 kts | 191° |
| 2026-04-25 15:25 | 47.27295 | 15.31929 | 27990 ft | 431 kts | 191° |
| 2026-04-25 15:25 | 47.24312 | 15.31392 | 27997 ft | 431 kts | 191° |
| 2026-04-25 15:26 | 47.18351 | 15.30327 | 27979 ft | 432 kts | 191° |
| 2026-04-25 15:26 | 47.15370 | 15.29797 | 27988 ft | 431 kts | 191° |
| 2026-04-25 15:26 | 47.12386 | 15.29269 | 27984 ft | 431 kts | 191° |
| 2026-04-25 15:27 | 47.09404 | 15.28741 | 27975 ft | 431 kts | 191° |
| 2026-04-25 15:27 | 47.06422 | 15.28214 | 27974 ft | 431 kts | 191° |
| 2026-04-25 15:27 | 47.00467 | 15.27163 | 27975 ft | 431 kts | 191° |
| 2026-04-25 15:28 | 46.97486 | 15.26638 | 27959 ft | 431 kts | 191° |
| 2026-04-25 15:28 | 46.94545 | 15.26121 | 27973 ft | 431 kts | 191° |
| 2026-04-25 15:28 | 46.91560 | 15.25596 | 27981 ft | 431 kts | 191° |
| 2026-04-25 15:28 | 46.88583 | 15.25073 | 27972 ft | 432 kts | 191° |
| 2026-04-25 15:29 | 46.85600 | 15.24550 | 27969 ft | 432 kts | 191° |
| 2026-04-25 15:29 | 46.82613 | 15.24026 | 27974 ft | 432 kts | 191° |
| 2026-04-25 15:29 | 46.79621 | 15.23503 | 27964 ft | 432 kts | 191° |
| 2026-04-25 15:29 | 46.76631 | 15.22980 | 27963 ft | 432 kts | 191° |
| 2026-04-25 15:30 | 46.73651 | 15.22460 | 27970 ft | 432 kts | 191° |
| 2026-04-25 15:30 | 46.70666 | 15.21939 | 27972 ft | 432 kts | 191° |
| 2026-04-25 15:30 | 46.67679 | 15.21418 | 27972 ft | 432 kts | 191° |
| 2026-04-25 15:30 | 46.64683 | 15.20947 | 27965 ft | 434 kts | 188° |
| 2026-04-25 15:31 | 46.61647 | 15.20959 | 27977 ft | 437 kts | 181° |
| 2026-04-25 15:31 | 46.58607 | 15.21212 | 27966 ft | 438 kts | 180° |
| 2026-04-25 15:31 | 46.55558 | 15.21522 | 27959 ft | 438 kts | 180° |
| 2026-04-25 15:31 | 46.52516 | 15.21838 | 27955 ft | 438 kts | 180° |
| 2026-04-25 15:32 | 46.49514 | 15.22136 | 27950 ft | 437 kts | 180° |
| 2026-04-25 15:32 | 46.46476 | 15.22420 | 27972 ft | 438 kts | 180° |
| 2026-04-25 15:32 | 46.43427 | 15.22690 | 27976 ft | 438 kts | 181° |
| 2026-04-25 15:33 | 46.37330 | 15.23208 | 27963 ft | 439 kts | 181° |
| 2026-04-25 15:33 | 46.34276 | 15.23463 | 27953 ft | 439 kts | 181° |
| 2026-04-25 15:33 | 46.31220 | 15.23715 | 27962 ft | 439 kts | 181° |
| 2026-04-25 15:33 | 46.28166 | 15.23970 | 27958 ft | 439 kts | 181° |
| 2026-04-25 15:34 | 46.25116 | 15.24225 | 27968 ft | 439 kts | 181° |
| 2026-04-25 15:34 | 46.22062 | 15.24480 | 27967 ft | 439 kts | 181° |
| 2026-04-25 15:34 | 46.19010 | 15.24735 | 27974 ft | 439 kts | 181° |
| 2026-04-25 15:34 | 46.18022 | 15.24817 | 27975 ft | 439 kts | 181° |
| 2026-04-25 15:35 | 46.09849 | 15.25496 | 27965 ft | 439 kts | 181° |
| 2026-04-25 15:35 | 46.06807 | 15.25749 | 27973 ft | 439 kts | 180° |
| 2026-04-25 15:35 | 46.03759 | 15.26001 | 27970 ft | 439 kts | 180° |
| 2026-04-25 15:36 | 45.97658 | 15.26506 | 27974 ft | 439 kts | 180° |
| 2026-04-25 15:36 | 45.94607 | 15.26757 | 27966 ft | 439 kts | 180° |
| 2026-04-25 15:36 | 45.91557 | 15.27009 | 27960 ft | 439 kts | 180° |
| 2026-04-25 15:37 | 45.88704 | 15.27244 | 27965 ft | 439 kts | 180° |
| 2026-04-25 15:37 | 45.85658 | 15.27495 | 27971 ft | 440 kts | 180° |
| 2026-04-25 15:37 | 45.82597 | 15.27746 | 27972 ft | 440 kts | 180° |
| 2026-04-25 15:37 | 45.79539 | 15.27998 | 27974 ft | 440 kts | 180° |
| 2026-04-25 15:38 | 45.76486 | 15.28248 | 27972 ft | 440 kts | 180° |
| 2026-04-25 15:38 | 45.73429 | 15.28498 | 27969 ft | 440 kts | 180° |
| 2026-04-25 15:38 | 45.70370 | 15.28749 | 27961 ft | 440 kts | 180° |
| 2026-04-25 15:38 | 45.67316 | 15.28999 | 27968 ft | 439 kts | 180° |
| 2026-04-25 15:39 | 45.64258 | 15.29249 | 27972 ft | 439 kts | 180° |
| 2026-04-25 15:39 | 45.61203 | 15.29498 | 27964 ft | 440 kts | 180° |
| 2026-04-25 15:39 | 45.58145 | 15.29780 | 27830 ft | 442 kts | 178° |
| 2026-04-25 15:39 | 45.55110 | 15.30566 | 27694 ft | 446 kts | 169° |
| 2026-04-25 15:40 | 45.52113 | 15.31733 | 27570 ft | 447 kts | 168° |
| 2026-04-25 15:40 | 45.51104 | 15.32141 | 27528 ft | 447 kts | 167° |
| 2026-04-25 15:40 | 45.46128 | 15.34183 | 27299 ft | 446 kts | 167° |
| 2026-04-25 15:40 | 45.43145 | 15.35397 | 27178 ft | 446 kts | 167° |
| 2026-04-25 15:41 | 45.40153 | 15.36600 | 27048 ft | 446 kts | 168° |
| 2026-04-25 15:41 | 45.37204 | 15.37770 | 26916 ft | 446 kts | 168° |
| 2026-04-25 15:41 | 45.34173 | 15.38964 | 26805 ft | 446 kts | 168° |
| 2026-04-25 15:41 | 45.31217 | 15.40121 | 26666 ft | 447 kts | 168° |
| 2026-04-25 15:42 | 45.28213 | 15.41293 | 26541 ft | 448 kts | 168° |
| 2026-04-25 15:42 | 45.25211 | 15.42463 | 26428 ft | 448 kts | 168° |
| 2026-04-25 15:42 | 45.22197 | 15.43637 | 26294 ft | 448 kts | 168° |
| 2026-04-25 15:42 | 45.19189 | 15.44806 | 26181 ft | 449 kts | 168° |
| 2026-04-25 15:43 | 45.16178 | 15.45977 | 26064 ft | 449 kts | 168° |
| 2026-04-25 15:43 | 45.13166 | 15.47147 | 25935 ft | 449 kts | 168° |
| 2026-04-25 15:43 | 45.10154 | 15.48316 | 25804 ft | 449 kts | 168° |
| 2026-04-25 15:43 | 45.07135 | 15.49486 | 25693 ft | 449 kts | 168° |
| 2026-04-25 15:44 | 45.04122 | 15.50653 | 25546 ft | 449 kts | 167° |
| 2026-04-25 15:44 | 45.01109 | 15.51819 | 25436 ft | 448 kts | 167° |
| 2026-04-25 15:44 | 44.98105 | 15.52980 | 25310 ft | 448 kts | 167° |
| 2026-04-25 15:44 | 44.95104 | 15.54138 | 25194 ft | 447 kts | 167° |
| 2026-04-25 15:45 | 44.92105 | 15.55294 | 25083 ft | 447 kts | 167° |
| 2026-04-25 15:45 | 44.89108 | 15.56448 | 24935 ft | 446 kts | 167° |
| 2026-04-25 15:45 | 44.86118 | 15.57599 | 24827 ft | 445 kts | 167° |
| 2026-04-25 15:45 | 44.85109 | 15.57986 | 24791 ft | 445 kts | 167° |
| 2026-04-25 15:46 | 44.80154 | 15.59889 | 24599 ft | 443 kts | 167° |
| 2026-04-25 15:46 | 44.77178 | 15.61031 | 24492 ft | 443 kts | 167° |
| 2026-04-25 15:46 | 44.74206 | 15.62169 | 24369 ft | 442 kts | 167° |
| 2026-04-25 15:46 | 44.71244 | 15.63302 | 24249 ft | 441 kts | 167° |
| 2026-04-25 15:47 | 44.68278 | 15.64436 | 24117 ft | 441 kts | 167° |
| 2026-04-25 15:47 | 44.66420 | 15.65145 | 24053 ft | 440 kts | 167° |
| 2026-04-25 15:47 | 44.63915 | 15.66101 | 23951 ft | 440 kts | 167° |
| 2026-04-25 15:47 | 44.60961 | 15.67227 | 23841 ft | 440 kts | 167° |
| 2026-04-25 15:48 | 44.58012 | 15.68350 | 23731 ft | 439 kts | 167° |
| 2026-04-25 15:48 | 44.55062 | 15.69472 | 23607 ft | 439 kts | 167° |
| 2026-04-25 15:48 | 44.52238 | 15.70546 | 23491 ft | 438 kts | 167° |
| 2026-04-25 15:48 | 44.49296 | 15.71662 | 23358 ft | 438 kts | 167° |
| 2026-04-25 15:49 | 44.46356 | 15.72778 | 23212 ft | 437 kts | 167° |
| 2026-04-25 15:49 | 44.43417 | 15.73891 | 23080 ft | 437 kts | 167° |
| 2026-04-25 15:49 | 44.40479 | 15.75003 | 22958 ft | 436 kts | 167° |
| 2026-04-25 15:49 | 44.37550 | 15.76110 | 22808 ft | 435 kts | 167° |
| 2026-04-25 15:50 | 44.34628 | 15.77214 | 22683 ft | 434 kts | 167° |
| 2026-04-25 15:50 | 44.31708 | 15.78316 | 22555 ft | 433 kts | 167° |
| 2026-04-25 15:50 | 44.28802 | 15.79412 | 22416 ft | 432 kts | 167° |
| 2026-04-25 15:50 | 44.25902 | 15.80504 | 22277 ft | 431 kts | 167° |
| 2026-04-25 15:51 | 44.23050 | 15.81576 | 22147 ft | 430 kts | 167° |
| 2026-04-25 15:51 | 44.21100 | 15.82310 | 22050 ft | 429 kts | 167° |
| 2026-04-25 15:51 | 44.17281 | 15.83744 | 21880 ft | 428 kts | 167° |
| 2026-04-25 15:51 | 44.14407 | 15.84813 | 21751 ft | 427 kts | 168° |
| 2026-04-25 15:52 | 44.11491 | 15.85513 | 21615 ft | 424 kts | 177° |
| 2026-04-25 15:52 | 44.08548 | 15.85785 | 21500 ft | 423 kts | 179° |
| 2026-04-25 15:52 | 44.05609 | 15.86006 | 21368 ft | 423 kts | 179° |
| 2026-04-25 15:52 | 44.02677 | 15.86220 | 21240 ft | 422 kts | 179° |
| 2026-04-25 15:53 | 43.99739 | 15.86445 | 21116 ft | 422 kts | 179° |
| 2026-04-25 15:53 | 43.96806 | 15.86682 | 20975 ft | 421 kts | 178° |
| 2026-04-25 15:53 | 43.93878 | 15.86929 | 20859 ft | 421 kts | 178° |
| 2026-04-25 15:53 | 43.90995 | 15.87179 | 20735 ft | 420 kts | 178° |
| 2026-04-25 15:54 | 43.88082 | 15.87435 | 20614 ft | 420 kts | 178° |
| 2026-04-25 15:54 | 43.85168 | 15.87692 | 20484 ft | 419 kts | 178° |
| 2026-04-25 15:54 | 43.82263 | 15.87948 | 20361 ft | 418 kts | 178° |
| 2026-04-25 15:54 | 43.79355 | 15.88204 | 20236 ft | 418 kts | 178° |
| 2026-04-25 15:55 | 43.76459 | 15.88459 | 20111 ft | 417 kts | 178° |
| 2026-04-25 15:55 | 43.73562 | 15.88713 | 19995 ft | 416 kts | 178° |
| 2026-04-25 15:55 | 43.70672 | 15.88966 | 19874 ft | 416 kts | 178° |
| 2026-04-25 15:55 | 43.67790 | 15.89219 | 19751 ft | 415 kts | 178° |
| 2026-04-25 15:56 | 43.64907 | 15.89471 | 19639 ft | 414 kts | 178° |
| 2026-04-25 15:56 | 43.62031 | 15.89722 | 19518 ft | 413 kts | 178° |
| 2026-04-25 15:56 | 43.59173 | 15.89971 | 19399 ft | 413 kts | 178° |
| 2026-04-25 15:56 | 43.56301 | 15.90221 | 19237 ft | 413 kts | 178° |
| 2026-04-25 15:57 | 43.53428 | 15.90471 | 18760 ft | 412 kts | 178° |
| 2026-04-25 15:57 | 43.50621 | 15.90717 | 18194 ft | 397 kts | 178° |
| 2026-04-25 15:57 | 43.47891 | 15.90956 | 17244 ft | 390 kts | 178° |
| 2026-04-25 15:57 | 43.45225 | 15.91188 | 16620 ft | 377 kts | 178° |
| 2026-04-25 15:58 | 43.43016 | 15.91379 | 16079 ft | 369 kts | 178° |
| 2026-04-25 15:58 | 43.40426 | 15.91603 | 15450 ft | 359 kts | 178° |
| 2026-04-25 15:58 | 43.37961 | 15.91817 | 14844 ft | 351 kts | 178° |
| 2026-04-25 15:58 | 43.35542 | 15.92026 | 14154 ft | 345 kts | 178° |
| 2026-04-25 15:59 | 43.33221 | 15.92544 | 13427 ft | 334 kts | 161° |
| 2026-04-25 15:59 | 43.31279 | 15.94168 | 12655 ft | 324 kts | 138° |
| 2026-04-25 15:59 | 43.29868 | 15.96499 | 11890 ft | 314 kts | 120° |
| 2026-04-25 15:59 | 43.28909 | 15.99150 | 11186 ft | 305 kts | 114° |
| 2026-04-25 16:00 | 43.28075 | 16.01758 | 10704 ft | 291 kts | 112° |
| 2026-04-25 16:00 | 43.27819 | 16.02577 | 10544 ft | 287 kts | 112° |
| 2026-04-25 16:00 | 43.26535 | 16.06676 | 9721 ft | 271 kts | 112° |
| 2026-04-25 16:00 | 43.25794 | 16.09022 | 9189 ft | 264 kts | 112° |
| 2026-04-25 16:01 | 43.25078 | 16.11266 | 8682 ft | 257 kts | 112° |
| 2026-04-25 16:01 | 43.24365 | 16.13488 | 8177 ft | 252 kts | 112° |
| 2026-04-25 16:01 | 43.23667 | 16.15658 | 7699 ft | 246 kts | 112° |
| 2026-04-25 16:01 | 43.22995 | 16.17735 | 7496 ft | 231 kts | 112° |
| 2026-04-25 16:02 | 43.22375 | 16.19647 | 7324 ft | 215 kts | 112° |
| 2026-04-25 16:02 | 43.21787 | 16.21460 | 7156 ft | 204 kts | 112° |
| 2026-04-25 16:02 | 43.21207 | 16.23245 | 6979 ft | 200 kts | 112° |
| 2026-04-25 16:02 | 43.20650 | 16.24961 | 6815 ft | 200 kts | 112° |
| 2026-04-25 16:03 | 43.20087 | 16.26692 | 6645 ft | 199 kts | 112° |
| 2026-04-25 16:03 | 43.19523 | 16.28424 | 6481 ft | 199 kts | 112° |
| 2026-04-25 16:03 | 43.18959 | 16.30156 | 6291 ft | 200 kts | 112° |
| 2026-04-25 16:03 | 43.18388 | 16.31907 | 6123 ft | 196 kts | 112° |
| 2026-04-25 16:04 | 43.17838 | 16.33590 | 5938 ft | 192 kts | 112° |
| 2026-04-25 16:04 | 43.17307 | 16.35214 | 5784 ft | 188 kts | 111° |
| 2026-04-25 16:04 | 43.16768 | 16.36864 | 5608 ft | 191 kts | 112° |
| 2026-04-25 16:04 | 43.16226 | 16.38521 | 5448 ft | 191 kts | 112° |
| 2026-04-25 16:05 | 43.15678 | 16.40195 | 5269 ft | 194 kts | 111° |
| 2026-04-25 16:05 | 43.15128 | 16.41877 | 5113 ft | 195 kts | 111° |
| 2026-04-25 16:05 | 43.14016 | 16.45273 | 5031 ft | 190 kts | 113° |
| 2026-04-25 16:06 | 43.13470 | 16.46934 | 5048 ft | 192 kts | 112° |
| 2026-04-25 16:06 | 43.12924 | 16.48594 | 5026 ft | 192 kts | 112° |
| 2026-04-25 16:06 | 43.12375 | 16.50264 | 5039 ft | 194 kts | 112° |
| 2026-04-25 16:06 | 43.11821 | 16.51958 | 5038 ft | 196 kts | 110° |
| 2026-04-25 16:07 | 43.11710 | 16.53756 | 5031 ft | 188 kts | 70° |
| 2026-04-25 16:07 | 43.12124 | 16.54779 | 5030 ft | 179 kts | 45° |
| 2026-04-25 16:07 | 43.13395 | 16.55972 | 5178 ft | 161 kts | 24° |
| 2026-04-25 16:07 | 43.14392 | 16.56608 | 5194 ft | 157 kts | 18° |
| 2026-04-25 16:08 | 43.15423 | 16.57083 | 5279 ft | 155 kts | 16° |
| 2026-04-25 16:08 | 43.16466 | 16.57549 | 5418 ft | 159 kts | 16° |
| 2026-04-25 16:08 | 43.17527 | 16.58004 | 5464 ft | 160 kts | 16° |
| 2026-04-25 16:08 | 43.18578 | 16.58492 | 5442 ft | 160 kts | 17° |
| 2026-04-25 16:09 | 43.19602 | 16.59051 | 5370 ft | 160 kts | 27° |
| 2026-04-25 16:09 | 43.20501 | 16.59942 | 5168 ft | 158 kts | 36° |
| 2026-04-25 16:09 | 43.21338 | 16.60896 | 4796 ft | 154 kts | 37° |
| 2026-04-25 16:09 | 43.22144 | 16.61831 | 4431 ft | 150 kts | 36° |
| 2026-04-25 16:10 | 43.22964 | 16.62693 | 4066 ft | 145 kts | 33° |
| 2026-04-25 16:10 | 43.23768 | 16.63476 | 3690 ft | 140 kts | 30° |
| 2026-04-25 16:10 | 43.24577 | 16.64230 | 3329 ft | 143 kts | 30° |
| 2026-04-25 16:10 | 43.25412 | 16.64985 | 2938 ft | 146 kts | 27° |
| 2026-04-25 16:11 | 43.26258 | 16.65747 | 2543 ft | 143 kts | 31° |
| 2026-04-25 16:11 | 43.27057 | 16.66541 | 2107 ft | 141 kts | 29° |
| 2026-04-25 16:11 | 43.27840 | 16.67282 | 1770 ft | 130 kts | 31° |
| 2026-04-25 16:11 | 43.28408 | 16.67815 | 1734 ft | 51 kts | 34° |
| 2026-04-25 16:12 | 43.28482 | 16.67885 | 1729 ft | 1 kts | 36° |
| 2026-04-25 16:12 | 43.28498 | 16.67901 | 1733 ft | 4 kts | 35° |
| 2026-04-25 16:12 | 43.28526 | 16.67928 | 1732 ft | 5 kts | 34° |
| 2026-04-25 16:12 | 43.28548 | 16.67949 | 1730 ft | 6 kts | 37° |
| 2026-04-25 16:13 | 43.28602 | 16.68000 | 1726 ft | 8 kts | 33° |
| 2026-04-25 16:13 | 43.28650 | 16.68046 | 1724 ft | 9 kts | 34° |
| 2026-04-25 16:13 | 43.28706 | 16.68062 | 1729 ft | 9 kts | 332° |
| 2026-04-25 16:13 | 43.28728 | 16.68031 | 1728 ft | 2 kts | 310° |
| 2026-04-25 16:15 | 43.28736 | 16.68016 | 1729 ft | 2 kts | 308° |
| 2026-04-25 16:15 | 43.28757 | 16.67977 | 1730 ft | 7 kts | 304° |
| 2026-04-25 16:16 | 43.28788 | 16.67941 | 1731 ft | 4 kts | 356° |
| 2026-04-25 16:16 | 43.28823 | 16.67967 | 1731 ft | 9 kts | 32° |
| 2026-04-25 16:16 | 43.28873 | 16.68015 | 1731 ft | 5 kts | 54° |
| 2026-04-25 16:16 | 43.28863 | 16.68054 | 1731 ft | 5 kts | 150° |
| 2026-04-25 16:17 | 43.28855 | 16.68056 | 1733 ft | 0 kts | 173° |